Time;durP1;ratioP1;P1;durP2;ratioP2;P2;SDS_P1;SDS_P2;PMS_P1;PMS_P2;Temp;Humidity;BMP_temperature;BMP_pressure;BME280_temperature;BME280_humidity;BME280_pressure;Samples;Min_cycle;Max_cycle;Signal;HPM_P1;HPM_P2
2022/11/20 00:00:56;;;;;;;10.82;6.10;;;2.10;99.90;;;;;;4957454;28;20117;-70
2022/11/20 00:03:21;;;;;;;18.42;7.63;;;2.10;99.90;;;;;;4974395;28;20114;-70
2022/11/20 00:05:47;;;;;;;16.60;7.15;;;2.10;99.90;;;;;;4957208;28;20085;-70
2022/11/20 00:08:12;;;;;;;16.38;7.18;;;2.00;99.90;;;;;;4957143;28;20085;-70
2022/11/20 00:10:41;;;;;;;16.77;7.43;;;2.00;99.90;;;;;;4974517;28;20053;-70
2022/11/20 00:13:07;;;;;;;16.23;6.93;;;2.10;99.90;;;;;;4957717;28;20027;-70
2022/11/20 00:15:33;;;;;;;13.45;6.75;;;2.10;99.90;;;;;;4974197;28;20083;-70
2022/11/20 00:17:59;;;;;;;16.67;7.47;;;2.10;99.90;;;;;;4956795;28;20110;-70
2022/11/20 00:20:25;;;;;;;14.70;6.32;;;2.00;99.90;;;;;;4957175;28;20126;-70
2022/11/20 00:22:50;;;;;;;14.35;7.57;;;1.90;99.90;;;;;;4957698;28;20123;-70
2022/11/20 00:25:16;;;;;;;15.90;7.32;;;2.00;99.90;;;;;;4956785;28;20027;-70
2022/11/20 00:27:42;;;;;;;15.88;7.28;;;2.10;99.90;;;;;;4956776;28;20082;-70
2022/11/20 00:30:08;;;;;;;14.73;6.78;;;2.10;99.90;;;;;;4974449;28;20106;-70
2022/11/20 00:32:33;;;;;;;13.85;7.05;;;2.20;99.90;;;;;;4973995;28;20066;-68
2022/11/20 00:34:59;;;;;;;13.18;6.68;;;2.20;99.90;;;;;;4957025;28;20058;-68
2022/11/20 00:37:25;;;;;;;14.98;6.57;;;2.30;99.90;;;;;;4975024;28;20098;-68
2022/11/20 00:39:51;;;;;;;16.98;6.70;;;2.30;99.90;;;;;;4974173;28;20034;-68
2022/11/20 00:42:17;;;;;;;14.48;6.60;;;2.40;99.90;;;;;;4956790;28;20022;-68
2022/11/20 00:44:42;;;;;;;16.25;6.72;;;2.40;99.90;;;;;;4956671;28;20027;-68
2022/11/20 00:47:08;;;;;;;14.30;7.30;;;2.30;99.90;;;;;;4974086;28;20034;-68
2022/11/20 00:49:34;;;;;;;15.35;6.78;;;2.30;99.90;;;;;;4956978;28;20026;-68
2022/11/20 00:51:59;;;;;;;13.57;7.10;;;2.30;99.90;;;;;;4957741;28;20027;-68
2022/11/20 00:54:25;;;;;;;17.73;7.22;;;2.30;99.90;;;;;;4957038;28;20027;-68
2022/11/20 00:56:53;;;;;;;19.23;7.78;;;2.30;99.90;;;;;;4973936;28;20027;-68
2022/11/20 00:59:18;;;;;;;11.45;6.30;;;2.20;99.90;;;;;;4956904;28;20029;-68
2022/11/20 01:01:44;;;;;;;15.45;6.60;;;2.30;99.90;;;;;;4957611;28;20027;-68
2022/11/20 01:04:10;;;;;;;14.60;6.05;;;2.40;99.90;;;;;;4960117;28;20151;-68
2022/11/20 01:06:37;;;;;;;16.13;7.45;;;2.30;99.90;;;;;;4960297;28;20031;-68
2022/11/20 01:09:12;;;;;;;12.23;6.43;;;2.40;99.90;;;;;;4960490;28;20030;-68
2022/11/20 01:11:40;;;;;;;16.27;7.40;;;2.30;99.90;;;;;;4960111;28;20033;-68
2022/11/20 01:14:10;;;;;;;14.95;6.40;;;2.30;99.90;;;;;;4960697;28;20054;-68
2022/11/20 01:16:38;;;;;;;16.15;6.85;;;2.20;99.90;;;;;;4977796;28;20030;-68
2022/11/20 01:19:06;;;;;;;13.75;6.32;;;2.10;99.90;;;;;;4959849;28;20164;-68
2022/11/20 01:21:35;;;;;;;14.13;6.75;;;2.00;99.90;;;;;;4959757;28;20114;-68
2022/11/20 01:24:01;;;;;;;12.32;6.05;;;1.90;99.90;;;;;;4959728;28;20121;-68
2022/11/20 01:26:31;;;;;;;16.00;7.20;;;2.10;99.90;;;;;;4977016;28;20386;-68
2022/11/20 01:28:58;;;;;;;13.98;7.10;;;2.10;99.90;;;;;;4977243;28;20386;-68
2022/11/20 01:31:32;;;;;;;15.35;7.25;;;2.00;99.90;;;;;;4959795;28;20034;-68
2022/11/20 01:34:02;;;;;;;13.55;6.55;;;1.90;99.90;;;;;;4959419;28;20118;-68
2022/11/20 01:36:30;;;;;;;19.67;7.20;;;1.90;99.90;;;;;;4959533;28;20055;-68
2022/11/20 01:38:58;;;;;;;13.77;6.70;;;2.10;99.90;;;;;;4959608;28;20034;-68
2022/11/20 01:44:16;;;;;;;14.68;7.30;;;2.20;99.90;;;;;;4977167;28;20033;-68
2022/11/20 01:47:22;;;;;;;16.83;7.20;;;2.30;99.90;;;;;;4959491;28;20023;-68
2022/11/20 01:50:05;;;;;;;15.15;6.85;;;2.40;99.90;;;;;;4883077;29;20037;-68
2022/11/20 01:52:37;;;;;;;14.98;6.55;;;2.40;99.90;;;;;;4883187;29;20044;-68
2022/11/20 01:55:12;;;;;;;15.90;7.43;;;2.40;99.90;;;;;;4898916;29;20089;-68
2022/11/20 01:57:39;;;;;;;12.73;6.25;;;2.40;99.90;;;;;;4883556;29;20096;-68
2022/11/20 02:00:11;;;;;;;13.20;6.45;;;2.40;99.90;;;;;;4882744;29;20035;-68
2022/11/20 02:02:38;;;;;;;15.13;7.85;;;2.40;99.90;;;;;;4882410;29;20084;-68
2022/11/20 02:05:26;;;;;;;15.63;7.13;;;2.40;99.90;;;;;;4882392;29;20040;-68
2022/11/20 02:07:54;;;;;;;15.60;7.65;;;2.40;99.90;;;;;;4882616;29;20064;-68
2022/11/20 02:10:20;;;;;;;17.63;8.00;;;2.40;99.90;;;;;;4882483;29;20080;-68
2022/11/20 02:15:32;;;;;;;15.98;6.78;;;2.10;99.90;;;;;;4897837;29;20027;-68
2022/11/20 02:17:57;;;;;;;15.80;7.32;;;2.10;99.90;;;;;;4897771;29;20075;-68
2022/11/20 02:20:23;;;;;;;16.33;7.75;;;1.80;99.90;;;;;;4897918;29;20056;-68
2022/11/20 02:22:56;;;;;;;20.40;8.13;;;1.80;99.90;;;;;;4893328;28;20035;-68
2022/11/20 02:25:24;;;;;;;16.48;7.03;;;1.90;99.90;;;;;;4958920;28;20081;-68
2022/11/20 02:27:50;;;;;;;15.52;7.68;;;2.10;99.90;;;;;;4975987;28;20015;-68
2022/11/20 02:30:16;;;;;;;15.93;7.50;;;2.30;99.90;;;;;;4976137;28;20084;-68
2022/11/20 02:32:42;;;;;;;14.70;7.40;;;2.20;99.90;;;;;;4958958;28;20113;-68
2022/11/20 02:35:20;;;;;;;14.57;7.35;;;1.90;99.90;;;;;;4958556;28;20030;-68
2022/11/20 02:37:48;;;;;;;16.75;6.88;;;1.90;99.90;;;;;;4959472;28;20019;-68
2022/11/20 02:40:14;;;;;;;14.07;6.78;;;2.10;99.90;;;;;;4976289;28;20086;-68
2022/11/20 02:42:40;;;;;;;15.13;7.05;;;2.30;99.90;;;;;;4958742;28;20027;-68
2022/11/20 02:45:06;;;;;;;14.82;7.00;;;2.40;99.90;;;;;;4958496;28;20027;-68
2022/11/20 02:47:31;;;;;;;16.33;7.72;;;2.50;99.90;;;;;;4958450;28;20027;-68
2022/11/20 02:49:57;;;;;;;18.65;8.20;;;2.60;99.90;;;;;;4958834;28;20029;-68
2022/11/20 02:52:23;;;;;;;14.77;7.90;;;2.50;99.90;;;;;;4958445;28;20027;-68
2022/11/20 02:54:49;;;;;;;17.08;7.20;;;2.40;99.90;;;;;;4958896;28;20105;-68
2022/11/20 02:57:14;;;;;;;14.77;6.88;;;2.40;99.90;;;;;;4958188;28;20046;-68
2022/11/20 02:59:40;;;;;;;14.90;7.18;;;2.30;99.90;;;;;;4958324;28;20023;-68
2022/11/20 03:02:05;;;;;;;17.00;7.57;;;2.30;99.90;;;;;;4975724;28;20043;-68
2022/11/20 03:04:31;;;;;;;16.48;7.63;;;2.40;99.90;;;;;;4979355;23;20058;-67
2022/11/20 03:06:57;;;;;;;17.40;7.38;;;2.40;99.90;;;;;;4958848;28;20042;-67
2022/11/20 03:09:22;;;;;;;19.52;8.57;;;2.30;99.90;;;;;;4957751;28;20022;-67
2022/11/20 03:11:48;;;;;;;17.67;8.13;;;2.30;99.90;;;;;;4957650;28;20031;-67
2022/11/20 03:14:14;;;;;;;18.35;7.55;;;2.20;99.90;;;;;;4957522;28;20063;-67
2022/11/20 03:16:39;;;;;;;15.48;7.63;;;2.20;99.90;;;;;;4975035;28;20022;-67
2022/11/20 03:19:05;;;;;;;21.38;7.47;;;2.30;99.90;;;;;;4957696;28;20027;-68
2022/11/20 03:21:33;;;;;;;17.50;7.82;;;2.40;99.90;;;;;;4957729;28;20023;-68
2022/11/20 03:23:59;;;;;;;15.50;7.25;;;2.50;99.90;;;;;;4957889;28;20125;-68
2022/11/20 03:26:25;;;;;;;16.38;8.15;;;2.50;99.90;;;;;;4974226;28;20065;-68
2022/11/20 03:28:53;;;;;;;17.83;8.13;;;2.10;99.90;;;;;;4957444;28;20042;-68
2022/11/20 03:31:22;;;;;;;17.17;7.70;;;1.80;99.90;;;;;;4957408;28;20026;-68
2022/11/20 03:33:48;;;;;;;18.08;7.78;;;1.60;99.90;;;;;;4957097;28;20410;-68
2022/11/20 03:36:15;;;;;;;16.88;7.57;;;1.60;99.90;;;;;;4974545;28;20019;-68
2022/11/20 03:38:41;;;;;;;12.95;6.90;;;1.50;99.90;;;;;;4957326;28;20086;-68
2022/11/20 03:41:15;;;;;;;16.38;7.60;;;1.80;99.90;;;;;;4957190;28;20169;-68
2022/11/20 03:43:41;;;;;;;16.70;7.35;;;2.10;99.90;;;;;;4957213;28;20027;-68
2022/11/20 03:46:07;;;;;;;15.68;6.88;;;2.20;99.90;;;;;;4974450;28;20037;-68
2022/11/20 03:48:33;;;;;;;17.15;7.28;;;2.30;99.90;;;;;;4957228;28;20023;-68
2022/11/20 03:51:12;;;;;;;18.27;7.30;;;2.40;99.90;;;;;;4957237;28;20026;-68
2022/11/20 03:53:39;;;;;;;17.23;7.82;;;2.50;99.90;;;;;;4957017;28;20034;-68
2022/11/20 03:56:05;;;;;;;19.08;7.72;;;2.30;99.90;;;;;;4974946;28;20019;-67
2022/11/20 03:58:32;;;;;;;17.23;7.72;;;2.20;99.90;;;;;;4957449;28;20023;-67
2022/11/20 04:00:57;;;;;;;14.30;6.70;;;2.20;99.90;;;;;;4957163;28;20027;-68
2022/11/20 04:03:23;;;;;;;19.23;7.72;;;2.10;99.90;;;;;;4956966;28;20027;-68
2022/11/20 04:05:48;;;;;;;15.13;7.35;;;2.10;99.90;;;;;;4974271;28;20069;-68
2022/11/20 04:08:14;;;;;;;16.10;7.18;;;2.20;99.90;;;;;;4957384;28;20027;-68
2022/11/20 04:10:39;;;;;;;15.85;7.32;;;2.30;99.90;;;;;;4957086;28;20049;-68
2022/11/20 04:13:05;;;;;;;16.05;7.00;;;2.20;99.90;;;;;;4974211;28;20023;-68
2022/11/20 04:15:30;;;;;;;15.75;7.00;;;1.80;99.90;;;;;;4957156;28;20080;-68
2022/11/20 04:17:56;;;;;;;14.88;7.50;;;1.80;99.90;;;;;;4974775;28;20035;-68
2022/11/20 04:20:21;;;;;;;18.67;8.23;;;1.80;99.90;;;;;;4957185;28;20019;-68
2022/11/20 04:22:47;;;;;;;15.75;7.32;;;1.60;99.90;;;;;;4957172;28;20019;-68
2022/11/20 04:25:12;;;;;;;17.13;7.70;;;1.30;99.90;;;;;;4956691;28;20121;-68
2022/11/20 04:27:38;;;;;;;17.10;8.10;;;1.40;99.90;;;;;;4956758;28;20066;-68
2022/11/20 04:30:04;;;;;;;18.20;8.27;;;1.70;99.90;;;;;;4956772;28;20120;-68
2022/11/20 04:32:29;;;;;;;16.70;7.10;;;2.00;99.90;;;;;;4956700;28;20023;-68
2022/11/20 04:34:55;;;;;;;16.95;7.43;;;2.30;99.90;;;;;;4957337;28;20038;-68
2022/11/20 04:37:20;;;;;;;17.75;8.07;;;2.30;99.90;;;;;;4975604;28;20094;-68
2022/11/20 04:39:46;;;;;;;16.13;7.90;;;2.00;99.90;;;;;;4961335;28;20025;-68
2022/11/20 04:42:30;;;;;;;17.48;7.15;;;1.90;99.90;;;;;;4977874;28;20054;-68
2022/11/20 04:44:56;;;;;;;16.88;8.07;;;1.80;99.90;;;;;;4960412;28;20026;-68
2022/11/20 04:47:22;;;;;;;17.30;8.05;;;1.80;99.90;;;;;;4960690;28;20023;-68
2022/11/20 04:49:47;;;;;;;16.35;7.93;;;1.90;99.90;;;;;;4960534;28;20098;-68
2022/11/20 04:52:13;;;;;;;16.92;7.35;;;1.80;99.90;;;;;;4977593;28;20030;-68
2022/11/20 04:54:39;;;;;;;16.80;7.72;;;1.90;99.90;;;;;;4960147;28;20035;-68
2022/11/20 04:57:05;;;;;;;15.32;7.63;;;2.10;99.90;;;;;;4977494;28;20029;-68
2022/11/20 04:59:31;;;;;;;14.75;7.20;;;2.30;99.90;;;;;;4961619;28;20019;-68
2022/11/20 05:01:56;;;;;;;18.20;8.00;;;2.50;99.90;;;;;;4977617;28;20371;-68
2022/11/20 05:04:22;;;;;;;16.67;7.43;;;2.60;99.90;;;;;;4959964;28;20046;-68
2022/11/20 05:06:49;;;;;;;17.92;7.95;;;2.60;99.90;;;;;;4960319;28;20038;-68
2022/11/20 05:09:15;;;;;;;17.67;7.35;;;2.60;99.90;;;;;;4960994;28;20038;-67
2022/11/20 05:11:40;;;;;;;16.13;7.32;;;2.60;99.90;;;;;;4960152;28;20027;-67
2022/11/20 05:14:06;;;;;;;16.83;7.40;;;2.60;99.90;;;;;;4960086;28;20059;-68
2022/11/20 05:16:35;;;;;;;17.92;8.23;;;2.40;99.90;;;;;;4959852;28;20019;-68
2022/11/20 05:19:00;;;;;;;17.30;6.90;;;2.30;99.90;;;;;;4959875;28;20093;-68
2022/11/20 05:21:26;;;;;;;18.35;7.60;;;2.20;99.90;;;;;;4977484;28;20079;-68
2022/11/20 05:23:51;;;;;;;18.02;7.35;;;2.40;99.90;;;;;;4977107;28;20091;-68
2022/11/20 05:26:22;;;;;;;18.27;7.97;;;2.60;99.90;;;;;;4977225;28;20490;-68
2022/11/20 05:28:49;;;;;;;21.40;7.75;;;2.60;99.90;;;;;;4959907;28;20065;-68
2022/11/20 05:31:20;;;;;;;18.38;7.60;;;2.60;99.90;;;;;;4959565;28;20041;-68
2022/11/20 05:33:46;;;;;;;15.70;7.20;;;2.70;99.90;;;;;;4959880;28;20038;-68
2022/11/20 05:36:14;;;;;;;17.70;8.10;;;2.60;99.90;;;;;;4959386;28;20039;-68
2022/11/20 05:38:40;;;;;;;16.48;8.02;;;2.70;99.90;;;;;;4976668;28;20031;-68
2022/11/20 05:41:07;;;;;;;20.45;9.07;;;2.50;99.90;;;;;;4959433;28;20030;-68
2022/11/20 05:43:38;;;;;;;17.92;8.15;;;2.10;99.90;;;;;;4976710;28;20031;-68
2022/11/20 05:46:05;;;;;;;21.13;8.30;;;2.10;99.90;;;;;;4959219;28;20026;-68
2022/11/20 05:48:31;;;;;;;17.63;8.52;;;1.90;99.90;;;;;;4958213;28;20050;-68
2022/11/20 05:50:58;;;;;;;18.95;8.70;;;2.00;99.90;;;;;;4959793;28;20027;-68
2022/11/20 05:53:24;;;;;;;20.45;9.27;;;2.10;99.90;;;;;;4959141;28;20031;-68
2022/11/20 05:56:20;;;;;;;18.92;7.85;;;1.80;99.90;;;;;;4959347;28;20025;-68
2022/11/20 05:58:46;;;;;;;18.15;8.02;;;1.70;99.90;;;;;;4882541;29;20069;-68
2022/11/20 06:01:18;;;;;;;18.27;8.43;;;1.70;99.90;;;;;;4882956;29;20021;-68
2022/11/20 06:03:47;;;;;;;;;;;1.60;99.90;;;;;;4899069;29;20040;-67
2022/11/20 06:06:17;;;;;;;17.48;7.60;;;1.80;99.90;;;;;;4882216;29;19943;-67
2022/11/20 06:08:44;;;;;;;19.30;8.70;;;1.80;99.90;;;;;;4882365;29;20037;-67
2022/11/20 06:11:12;;;;;;;18.90;8.55;;;2.00;99.90;;;;;;4882250;29;20036;-67
2022/11/20 06:13:37;;;;;;;21.27;8.02;;;2.10;99.90;;;;;;4882281;29;20028;-67
2022/11/20 06:16:03;;;;;;;17.90;7.72;;;2.20;99.90;;;;;;4882258;29;20120;-67
2022/11/20 06:18:30;;;;;;;22.38;9.23;;;2.40;99.90;;;;;;4897744;29;20025;-67
2022/11/20 06:21:03;;;;;;;18.17;8.25;;;2.50;99.90;;;;;;4897618;29;20039;-67
2022/11/20 06:23:32;;;;;;;17.30;8.38;;;2.60;99.90;;;;;;4897772;29;20107;-67
2022/11/20 06:26:05;;;;;;;17.88;8.57;;;2.70;99.90;;;;;;4897642;29;20032;-67
2022/11/20 06:28:31;;;;;;;19.95;8.23;;;2.70;99.90;;;;;;4882056;29;20037;-67
2022/11/20 06:30:57;;;;;;;20.20;8.73;;;2.70;99.90;;;;;;4898181;29;20123;-67
2022/11/20 06:33:23;;;;;;;25.73;10.05;;;2.50;99.90;;;;;;4898037;29;20123;-67
2022/11/20 06:35:48;;;;;;;17.88;7.60;;;2.20;99.90;;;;;;4942654;28;20038;-67
2022/11/20 06:38:14;;;;;;;17.63;8.55;;;2.00;99.90;;;;;;4958199;28;20109;-67
2022/11/20 06:40:42;;;;;;;17.60;8.70;;;2.00;99.90;;;;;;4958461;28;20030;-67
2022/11/20 06:43:11;;;;;;;19.33;8.82;;;1.90;99.90;;;;;;4958437;28;20066;-67
2022/11/20 06:45:37;;;;;;;22.10;8.82;;;2.00;99.90;;;;;;4958403;28;20027;-67
2022/11/20 06:48:03;;;;;;;21.00;8.70;;;2.10;99.90;;;;;;4958588;28;20023;-67
2022/11/20 06:50:29;;;;;;;18.77;8.05;;;2.10;99.90;;;;;;4958337;28;20126;-67
2022/11/20 06:52:54;;;;;;;21.10;8.93;;;2.30;99.90;;;;;;4975784;28;20085;-67
2022/11/20 06:55:20;;;;;;;22.65;9.45;;;2.20;99.90;;;;;;4975412;28;20034;-67
2022/11/20 06:57:45;;;;;;;20.15;9.20;;;2.10;99.90;;;;;;4958557;28;20026;-67
2022/11/20 07:00:11;;;;;;;23.48;9.65;;;2.00;99.90;;;;;;4958065;28;20023;-67
2022/11/20 07:02:37;;;;;;;18.90;8.43;;;2.00;99.90;;;;;;4958130;28;20023;-67
2022/11/20 07:05:03;;;;;;;21.35;9.45;;;2.00;99.90;;;;;;4958251;28;20385;-67
2022/11/20 07:07:29;;;;;;;20.27;8.95;;;2.20;99.90;;;;;;4976861;28;20026;-67
2022/11/20 07:09:54;;;;;;;21.50;8.85;;;2.30;99.90;;;;;;4958003;28;20033;-67
2022/11/20 07:12:20;;;;;;;20.73;8.57;;;2.40;99.90;;;;;;4957830;28;20037;-67
2022/11/20 07:14:45;;;;;;;21.05;9.15;;;2.50;99.90;;;;;;4975272;28;20023;-67
2022/11/20 07:17:11;;;;;;;19.38;8.68;;;2.30;99.90;;;;;;4975456;28;20382;-67
2022/11/20 07:19:37;;;;;;;21.63;9.00;;;2.40;99.90;;;;;;4975129;28;20098;-67
2022/11/20 07:22:02;;;;;;;19.40;8.48;;;2.60;99.90;;;;;;4975028;28;20411;-67
2022/11/20 07:24:28;;;;;;;20.20;8.05;;;2.80;99.90;;;;;;4975179;28;20039;-67
2022/11/20 07:26:53;;;;;;;18.85;8.48;;;2.80;99.90;;;;;;4957621;28;20034;-67
2022/11/20 07:29:19;;;;;;;21.15;8.85;;;2.80;99.90;;;;;;4975242;28;20031;-67
2022/11/20 07:31:45;;;;;;;18.83;8.85;;;2.90;99.90;;;;;;4958043;28;20031;-67
2022/11/20 07:34:10;;;;;;;19.27;8.75;;;2.80;99.90;;;;;;4974770;28;20031;-67
2022/11/20 07:36:36;;;;;;;17.17;7.68;;;2.90;99.90;;;;;;4957628;28;20030;-67
2022/11/20 07:39:01;;;;;;;16.50;8.38;;;2.90;99.90;;;;;;4957846;28;20046;-67
2022/11/20 07:41:27;;;;;;;16.95;8.20;;;2.90;99.90;;;;;;4958349;28;20041;-67
2022/11/20 07:43:53;;;;;;;17.85;8.60;;;2.90;99.90;;;;;;4957725;28;20023;-67
2022/11/20 07:46:18;;;;;;;17.48;9.05;;;2.90;99.90;;;;;;4957830;28;20033;-68
2022/11/20 07:48:44;;;;;;;22.10;8.88;;;2.90;99.90;;;;;;4974730;28;20027;-68
2022/11/20 07:51:09;;;;;;;23.35;9.32;;;2.90;99.90;;;;;;4958670;28;20035;-68
2022/11/20 07:53:35;;;;;;;19.65;8.98;;;3.00;99.90;;;;;;4957633;28;20121;-68
2022/11/20 07:56:02;;;;;;;19.67;8.07;;;3.00;99.90;;;;;;4957922;28;20023;-68
2022/11/20 07:58:29;;;;;;;22.48;8.98;;;3.00;99.90;;;;;;4957910;28;20027;-67
2022/11/20 08:00:55;;;;;;;21.23;8.80;;;2.90;99.90;;;;;;4975480;28;20031;-67
2022/11/20 08:03:21;;;;;;;19.77;8.70;;;3.00;99.90;;;;;;4958935;28;20030;-67
2022/11/20 08:05:46;;;;;;;20.13;9.20;;;3.00;99.90;;;;;;4959242;28;20031;-67
2022/11/20 08:08:12;;;;;;;20.15;9.02;;;3.00;99.90;;;;;;4960679;28;20058;-67
2022/11/20 08:10:37;;;;;;;22.33;10.18;;;3.00;99.90;;;;;;4974301;28;20030;-67
2022/11/20 08:15:52;;;;;;;25.80;10.43;;;3.00;99.90;;;;;;4983387;28;20033;-67
2022/11/20 08:18:17;;;;;;;24.35;9.82;;;3.00;99.90;;;;;;4965387;28;20483;-67
2022/11/20 08:20:43;;;;;;;23.85;10.70;;;3.00;99.90;;;;;;4965471;28;20055;-67
2022/11/20 08:23:09;;;;;;;24.88;10.02;;;3.10;99.90;;;;;;4964159;28;20134;-67
2022/11/20 08:25:36;;;;;;;26.00;9.52;;;3.10;99.90;;;;;;4982684;28;20023;-68
2022/11/20 08:28:07;;;;;;;24.92;11.55;;;3.10;99.90;;;;;;4980621;28;20083;-68
2022/11/20 08:30:32;;;;;;;23.15;9.52;;;3.10;99.90;;;;;;4981317;28;20074;-68
2022/11/20 08:33:04;;;;;;;23.35;10.27;;;3.20;99.90;;;;;;4963566;28;20073;-68
2022/11/20 08:35:34;;;;;;;33.30;10.75;;;3.20;99.90;;;;;;4963582;28;20056;-68
2022/11/20 08:38:00;;;;;;;27.83;11.30;;;3.30;99.90;;;;;;4980504;28;20023;-68
2022/11/20 08:40:25;;;;;;;23.45;10.98;;;3.40;99.90;;;;;;4980484;28;20101;-68
2022/11/20 08:42:51;;;;;;;22.52;10.27;;;3.40;99.90;;;;;;4963314;28;20067;-68
2022/11/20 08:45:18;;;;;;;23.02;10.07;;;3.50;99.90;;;;;;4964634;28;20089;-68
2022/11/20 08:47:44;;;;;;;25.00;9.82;;;3.40;99.90;;;;;;4963406;28;20027;-68
2022/11/20 08:50:11;;;;;;;26.10;12.13;;;3.40;99.90;;;;;;4980583;28;20035;-68
2022/11/20 08:52:37;;;;;;;24.98;10.52;;;3.50;99.90;;;;;;4963677;28;20030;-68
2022/11/20 08:55:05;;;;;;;26.48;10.75;;;3.70;99.90;;;;;;4980690;28;20023;-68
2022/11/20 08:57:37;;;;;;;26.25;10.73;;;3.60;99.90;;;;;;4963052;28;20027;-68
2022/11/20 09:00:05;;;;;;;28.90;11.27;;;3.50;99.90;;;;;;4980973;28;20027;-68
2022/11/20 09:02:32;;;;;;;27.45;10.82;;;3.50;99.90;;;;;;4980263;28;20094;-68
2022/11/20 09:04:57;;;;;;;24.27;10.32;;;3.50;99.90;;;;;;5012325;23;20031;-68
2022/11/20 09:07:23;;;;;;;28.30;11.45;;;3.40;99.90;;;;;;4962890;28;20093;-68
2022/11/20 09:09:48;;;;;;;26.70;11.13;;;3.30;99.90;;;;;;4980204;28;20037;-68
2022/11/20 09:12:14;;;;;;;23.90;10.85;;;3.10;99.90;;;;;;4963156;28;20027;-68
2022/11/20 09:14:40;;;;;;;36.10;14.00;;;3.30;99.90;;;;;;4980067;28;20110;-68
2022/11/20 09:17:07;;;;;;;33.50;12.88;;;3.30;99.90;;;;;;4963164;28;20031;-68
2022/11/20 09:19:33;;;;;;;34.70;12.48;;;3.40;99.90;;;;;;4980415;28;20018;-68
2022/11/20 09:21:59;;;;;;;30.08;12.32;;;3.40;99.90;;;;;;4963185;28;20390;-68
2022/11/20 09:24:25;;;;;;;28.40;12.73;;;3.50;99.90;;;;;;4977801;28;20019;-68
2022/11/20 09:26:51;;;;;;;30.73;12.25;;;3.50;99.90;;;;;;4977065;28;20023;-68
2022/11/20 09:29:17;;;;;;;31.13;12.15;;;3.60;99.90;;;;;;4959691;28;20137;-68
2022/11/20 09:31:42;;;;;;;37.90;13.55;;;3.60;99.90;;;;;;4960322;28;20051;-68
2022/11/20 09:34:08;;;;;;;42.75;14.95;;;3.60;99.90;;;;;;4976883;28;20042;-68
2022/11/20 09:36:33;;;;;;;35.75;13.82;;;3.60;99.90;;;;;;4959490;28;20470;-68
2022/11/20 09:38:59;;;;;;;32.08;12.15;;;3.60;99.90;;;;;;4976770;28;20026;-68
2022/11/20 09:41:49;;;;;;;30.98;12.35;;;3.60;99.90;;;;;;4959873;28;20023;-68
2022/11/20 09:44:37;;;;;;;29.05;12.25;;;3.70;99.90;;;;;;4959402;28;20114;-68
2022/11/20 09:47:10;;;;;;;32.75;12.65;;;3.60;99.90;;;;;;4959428;28;20023;-68
2022/11/20 09:50:01;;;;;;;32.15;12.95;;;3.40;99.90;;;;;;4959359;28;20038;-68
2022/11/20 09:52:54;;;;;;;33.85;12.50;;;3.10;99.90;;;;;;4959806;28;20023;-68
2022/11/20 09:55:21;;;;;;;35.05;13.50;;;3.10;99.90;;;;;;4959875;28;20069;-68
2022/11/20 09:57:50;;;;;;;35.63;14.43;;;3.00;99.90;;;;;;4959969;28;20027;-68
2022/11/20 10:00:17;;;;;;;34.13;13.77;;;3.00;99.90;;;;;;4976389;28;20022;-68
2022/11/20 10:02:58;;;;;;;38.30;13.70;;;2.90;99.90;;;;;;4959829;28;20019;-68
2022/11/20 10:05:44;;;;;;;34.72;14.10;;;2.90;99.90;;;;;;4958968;28;20035;-68
2022/11/20 10:08:22;;;;;;;31.10;12.38;;;2.80;99.90;;;;;;4958950;28;20081;-68
2022/11/20 10:11:06;;;;;;;30.00;12.75;;;2.70;99.90;;;;;;4976306;28;20023;-68
2022/11/20 10:13:41;;;;;;;38.28;13.82;;;2.80;99.90;;;;;;4958716;28;20065;-68
2022/11/20 10:16:14;;;;;;;32.45;11.57;;;3.00;99.90;;;;;;4959698;28;20113;-68
2022/11/20 10:18:42;;;;;;;32.75;12.63;;;3.20;99.90;;;;;;4958730;28;20422;-68
2022/11/20 10:21:45;;;;;;;33.00;12.40;;;3.40;99.90;;;;;;4958588;28;20027;-68
2022/11/20 10:24:45;;;;;;;31.35;12.55;;;3.60;99.90;;;;;;4958666;28;20058;-68
2022/11/20 10:27:35;;;;;;;29.45;11.00;;;3.80;99.90;;;;;;4958829;28;20065;-68
2022/11/20 10:30:09;;;;;;;30.50;12.48;;;3.90;99.90;;;;;;4958655;28;20027;-68
2022/11/20 10:32:41;;;;;;;30.17;11.82;;;4.10;99.90;;;;;;4958509;28;20022;-68
2022/11/20 10:35:17;;;;;;;34.85;11.82;;;4.20;99.90;;;;;;4957944;28;20027;-68
2022/11/20 10:37:46;;;;;;;37.83;14.45;;;4.20;99.90;;;;;;4958955;28;20019;-68
2022/11/20 10:40:42;;;;;;;36.70;13.02;;;4.20;99.90;;;;;;4975800;28;20027;-68
2022/11/20 10:43:12;;;;;;;30.77;11.55;;;4.30;99.90;;;;;;4958905;28;20069;-68
2022/11/20 10:45:58;;;;;;;36.05;12.80;;;4.40;99.90;;;;;;4958164;28;20019;-67
2022/11/20 10:48:26;;;;;;;33.95;13.30;;;4.60;99.90;;;;;;4975485;28;20098;-68
2022/11/20 10:51:00;;;;;;;30.90;12.75;;;4.80;99.90;;;;;;4958079;28;20034;-67
2022/11/20 10:53:50;;;;;;;28.10;11.85;;;4.80;99.90;;;;;;4975314;28;20034;-67
2022/11/20 10:56:21;;;;;;;32.03;12.68;;;4.80;99.90;;;;;;4958857;28;20030;-67
2022/11/20 10:59:01;;;;;;;32.42;12.13;;;4.60;99.90;;;;;;4958095;28;20027;-67
2022/11/20 11:01:26;;;;;;;40.95;14.13;;;4.10;99.90;;;;;;4958086;28;20027;-68
2022/11/20 11:03:54;;;;;;;35.33;13.00;;;4.20;99.90;;;;;;4957968;28;20022;-68
2022/11/20 11:06:24;;;;;;;42.95;14.18;;;4.30;99.90;;;;;;4958171;28;20034;-67
2022/11/20 11:08:53;;;;;;;35.30;13.15;;;4.40;99.90;;;;;;4957895;28;20482;-68
2022/11/20 11:11:31;;;;;;;42.22;14.45;;;4.50;99.90;;;;;;4958034;28;20117;-68
2022/11/20 11:14:14;;;;;;;37.58;13.18;;;4.60;99.90;;;;;;4957662;28;20033;-68
2022/11/20 11:16:54;;;;;;;33.38;10.75;;;4.50;99.90;;;;;;4957972;28;20046;-68
2022/11/20 11:19:20;;;;;;;31.95;10.85;;;4.60;99.90;;;;;;4958245;28;20023;-68
2022/11/20 11:21:47;;;;;;;37.72;13.77;;;4.60;99.90;;;;;;4974886;28;20086;-68
2022/11/20 11:24:25;;;;;;;35.17;13.32;;;4.60;99.90;;;;;;4957605;28;20117;-68
2022/11/20 11:27:04;;;;;;;33.60;13.48;;;4.60;99.90;;;;;;4958378;28;20038;-68
2022/11/20 11:29:30;;;;;;;35.08;13.38;;;4.60;99.90;;;;;;4958624;28;20030;-68
2022/11/20 11:32:14;;;;;;;33.83;13.40;;;4.70;99.90;;;;;;4974855;28;20030;-68
2022/11/20 11:34:40;;;;;;;34.75;12.32;;;4.70;99.90;;;;;;4974966;28;20466;-68
2022/11/20 11:37:18;;;;;;;36.80;13.43;;;4.70;99.90;;;;;;4957422;28;20540;-68
2022/11/20 11:39:46;;;;;;;37.65;13.88;;;4.80;99.90;;;;;;4957404;28;20023;-68
2022/11/20 11:42:16;;;;;;;42.40;13.30;;;4.80;99.90;;;;;;4957679;28;20034;-68
2022/11/20 11:47:48;;;;;;;34.97;12.15;;;4.50;99.90;;;;;;4952525;28;20113;-68
2022/11/20 11:50:22;;;;;;;36.10;12.95;;;4.50;99.90;;;;;;4954131;29;20039;-68
2022/11/20 11:53:12;;;;;;;36.13;12.20;;;4.60;99.90;;;;;;4937548;29;20036;-68
2022/11/20 11:55:50;;;;;;;32.50;12.82;;;4.50;99.90;;;;;;4953298;28;20027;-68
2022/11/20 11:58:41;;;;;;;37.17;13.32;;;4.50;99.90;;;;;;4953347;29;20039;-68
2022/11/20 12:01:30;;;;;;;34.97;12.77;;;4.50;99.90;;;;;;4953448;29;20023;-68
2022/11/20 12:04:21;;;;;;;36.75;12.20;;;4.50;99.90;;;;;;4937365;29;20129;-68
2022/11/20 12:06:53;;;;;;;33.10;11.93;;;4.60;99.90;;;;;;4953144;28;20062;-68
2022/11/20 12:09:23;;;;;;;36.85;12.27;;;4.40;99.90;;;;;;4953573;29;20127;-67
2022/11/20 12:12:04;;;;;;;33.22;13.05;;;4.30;99.90;;;;;;4937292;29;20562;-67
2022/11/20 12:14:42;;;;;;;36.95;13.43;;;4.40;99.90;;;;;;4937466;28;20033;-68
2022/11/20 12:17:13;;;;;;;36.65;12.32;;;4.50;99.90;;;;;;4937439;29;20033;-67
2022/11/20 12:19:39;;;;;;;34.75;12.10;;;4.20;99.90;;;;;;4937417;29;20020;-68
2022/11/20 12:22:10;;;;;;;33.25;11.20;;;4.20;99.90;;;;;;4937841;29;20140;-68
2022/11/20 12:24:51;;;;;;;36.08;11.43;;;4.30;99.90;;;;;;4951285;28;20086;-68
2022/11/20 12:27:32;;;;;;;37.25;13.32;;;4.40;99.90;;;;;;4957139;28;20045;-68
2022/11/20 12:30:08;;;;;;;34.85;13.23;;;4.40;99.90;;;;;;4957796;28;20042;-68
2022/11/20 12:33:11;;;;;;;31.17;11.63;;;4.40;99.90;;;;;;4956889;28;20030;-68
2022/11/20 12:36:12;;;;;;;29.00;11.00;;;4.50;99.90;;;;;;4957118;28;20038;-68
2022/11/20 12:39:08;;;;;;;28.70;10.90;;;4.70;99.90;;;;;;4956801;28;20042;-68
2022/11/20 12:47:49;;;;;;;31.88;10.73;;;4.80;99.90;;;;;;4974655;28;20030;-67
2022/11/20 12:50:21;;;;;;;31.48;12.35;;;4.80;99.90;;;;;;4957214;28;20109;-67
2022/11/20 12:53:05;;;;;;;28.15;11.05;;;4.60;99.90;;;;;;4974467;28;20027;-67
2022/11/20 12:55:39;;;;;;;45.42;14.10;;;4.40;99.90;;;;;;4957446;28;20117;-68
2022/11/20 12:58:10;;;;;;;32.60;12.10;;;4.50;99.90;;;;;;4957804;28;20050;-68
2022/11/20 13:00:43;;;;;;;34.42;12.75;;;4.80;99.90;;;;;;4961665;28;20098;-68
2022/11/20 13:03:09;;;;;;;38.60;14.73;;;5.00;99.90;;;;;;4960556;28;20038;-68
2022/11/20 13:05:59;;;;;;;34.83;13.45;;;5.20;99.90;;;;;;4978192;28;20035;-68
2022/11/20 13:08:29;;;;;;;39.30;13.27;;;5.00;99.90;;;;;;4977818;28;20034;-68
2022/11/20 13:11:14;;;;;;;34.38;13.15;;;4.60;99.90;;;;;;4960274;28;20023;-68
2022/11/20 13:13:55;;;;;;;34.00;12.63;;;4.30;99.90;;;;;;4960202;28;20026;-68